KPIT/PIT METAR and TAF weather

Enter ICAO airport designator
Station Type Date Time Source
KPIT METAR 2019/08/19 00:51 UTC NOAA

KPIT 190051Z 15006KT 10SM FEW140 SCT230 27/21 A2995 RMK AO2 SLP139 T02670211


Station Type Date Time Source
KPIT Decoded METAR 2019/08/19 00:51 UTC NOAA

Station name not available
Aug 18, 2019 - 08:51 PM EDT / 2019.08.19 0051 UTC
Wind: from the SSE (150 degrees) at 7 MPH (6 KT):0
Visibility: 10 mile(s):0
Sky conditions: partly cloudy
Temperature: 80.1 F (26.7 C)
Dew Point: 70.0 F (21.1 C)
Relative Humidity: 71%
Pressure (altimeter): 29.95 in. Hg (1014 hPa)
ob: KPIT 190051Z 15006KT 10SM FEW140 SCT230 27/21 A2995 RMK AO2 SLP139 T02670211
cycle: 1

Station Type Date Time Source
KPIT TAF 2019/08/18 21:09 UTC NOAA

TAF
AMD KPIT 182107Z 1821/1924 22006KT P6SM SCT050
FM190600 21004KT P6SM VCSH BKN050
FM191200 24006KT P6SM SCT060

Example: see airport list